sensor_id;sensor_type;location;lat;lon;timestamp;P1;durP1;ratioP1;P2;durP2;ratioP2
82703;SDS011;72427;42.000;21.464;2023-12-04T00:00:38;13.23;;;7.15;;
82703;SDS011;72427;42.000;21.464;2023-12-04T00:03:04;13.73;;;7.18;;
82703;SDS011;72427;42.000;21.464;2023-12-04T00:05:30;14.25;;;7.28;;
82703;SDS011;72427;42.000;21.464;2023-12-04T00:07:56;15.75;;;7.13;;
82703;SDS011;72427;42.000;21.464;2023-12-04T00:10:22;13.25;;;6.43;;
82703;SDS011;72427;42.000;21.464;2023-12-04T00:12:48;20.50;;;7.50;;
82703;SDS011;72427;42.000;21.464;2023-12-04T00:15:15;11.35;;;5.18;;
82703;SDS011;72427;42.000;21.464;2023-12-04T00:17:41;15.23;;;7.95;;
82703;SDS011;72427;42.000;21.464;2023-12-04T00:20:07;14.65;;;6.93;;
82703;SDS011;72427;42.000;21.464;2023-12-04T00:22:34;15.80;;;7.40;;
82703;SDS011;72427;42.000;21.464;2023-12-04T00:25:01;16.30;;;7.75;;
82703;SDS011;72427;42.000;21.464;2023-12-04T00:27:28;13.10;;;6.30;;
82703;SDS011;72427;42.000;21.464;2023-12-04T00:29:54;16.58;;;7.53;;
82703;SDS011;72427;42.000;21.464;2023-12-04T00:32:20;14.10;;;6.38;;
82703;SDS011;72427;42.000;21.464;2023-12-04T00:34:46;15.80;;;7.65;;
82703;SDS011;72427;42.000;21.464;2023-12-04T00:37:12;16.63;;;7.55;;
82703;SDS011;72427;42.000;21.464;2023-12-04T00:39:38;16.88;;;9.07;;
82703;SDS011;72427;42.000;21.464;2023-12-04T00:42:05;18.77;;;7.82;;
82703;SDS011;72427;42.000;21.464;2023-12-04T00:44:31;11.18;;;5.10;;
82703;SDS011;72427;42.000;21.464;2023-12-04T00:46:57;12.68;;;7.00;;
82703;SDS011;72427;42.000;21.464;2023-12-04T00:49:23;16.02;;;8.00;;
82703;SDS011;72427;42.000;21.464;2023-12-04T00:51:49;7.75;;;3.45;;
82703;SDS011;72427;42.000;21.464;2023-12-04T00:54:15;16.25;;;7.97;;
82703;SDS011;72427;42.000;21.464;2023-12-04T00:56:41;16.45;;;8.20;;
82703;SDS011;72427;42.000;21.464;2023-12-04T00:59:08;17.30;;;8.50;;
82703;SDS011;72427;42.000;21.464;2023-12-04T01:01:37;14.70;;;7.25;;
82703;SDS011;72427;42.000;21.464;2023-12-04T01:04:03;15.20;;;8.18;;
82703;SDS011;72427;42.000;21.464;2023-12-04T01:06:29;14.13;;;7.22;;
82703;SDS011;72427;42.000;21.464;2023-12-04T01:08:55;14.60;;;7.88;;
82703;SDS011;72427;42.000;21.464;2023-12-04T01:11:22;14.60;;;7.50;;
82703;SDS011;72427;42.000;21.464;2023-12-04T01:13:48;17.60;;;7.85;;
82703;SDS011;72427;42.000;21.464;2023-12-04T01:16:14;15.85;;;8.15;;
82703;SDS011;72427;42.000;21.464;2023-12-04T01:18:40;17.30;;;8.70;;
82703;SDS011;72427;42.000;21.464;2023-12-04T01:21:07;15.05;;;6.82;;
82703;SDS011;72427;42.000;21.464;2023-12-04T01:23:36;16.05;;;8.00;;
82703;SDS011;72427;42.000;21.464;2023-12-04T01:26:05;17.27;;;7.38;;
82703;SDS011;72427;42.000;21.464;2023-12-04T01:28:31;13.52;;;6.25;;
82703;SDS011;72427;42.000;21.464;2023-12-04T01:30:57;15.32;;;6.78;;
82703;SDS011;72427;42.000;21.464;2023-12-04T01:33:23;14.23;;;6.57;;
82703;SDS011;72427;42.000;21.464;2023-12-04T01:35:49;10.75;;;5.50;;
82703;SDS011;72427;42.000;21.464;2023-12-04T01:38:15;11.55;;;6.32;;
82703;SDS011;72427;42.000;21.464;2023-12-04T01:40:41;12.13;;;5.63;;
82703;SDS011;72427;42.000;21.464;2023-12-04T01:43:07;13.40;;;6.28;;
82703;SDS011;72427;42.000;21.464;2023-12-04T01:45:33;17.25;;;6.28;;
82703;SDS011;72427;42.000;21.464;2023-12-04T01:47:59;12.32;;;5.93;;
82703;SDS011;72427;42.000;21.464;2023-12-04T01:50:25;12.88;;;6.03;;
82703;SDS011;72427;42.000;21.464;2023-12-04T01:52:52;14.32;;;6.18;;
82703;SDS011;72427;42.000;21.464;2023-12-04T01:55:18;12.40;;;6.07;;
82703;SDS011;72427;42.000;21.464;2023-12-04T01:57:45;15.77;;;6.53;;
82703;SDS011;72427;42.000;21.464;2023-12-04T02:00:11;16.25;;;6.72;;
82703;SDS011;72427;42.000;21.464;2023-12-04T02:02:38;15.82;;;5.97;;
82703;SDS011;72427;42.000;21.464;2023-12-04T02:05:05;13.57;;;5.85;;
82703;SDS011;72427;42.000;21.464;2023-12-04T02:07:31;14.13;;;5.55;;
82703;SDS011;72427;42.000;21.464;2023-12-04T02:09:57;12.98;;;6.25;;
82703;SDS011;72427;42.000;21.464;2023-12-04T02:12:23;14.45;;;5.47;;
82703;SDS011;72427;42.000;21.464;2023-12-04T02:14:50;13.77;;;5.97;;
82703;SDS011;72427;42.000;21.464;2023-12-04T02:17:16;11.18;;;5.32;;
82703;SDS011;72427;42.000;21.464;2023-12-04T02:19:42;11.75;;;5.55;;
82703;SDS011;72427;42.000;21.464;2023-12-04T02:22:08;13.68;;;6.35;;
82703;SDS011;72427;42.000;21.464;2023-12-04T02:24:34;14.10;;;6.32;;
82703;SDS011;72427;42.000;21.464;2023-12-04T02:27:36;14.65;;;6.70;;
82703;SDS011;72427;42.000;21.464;2023-12-04T02:29:53;12.23;;;6.18;;
82703;SDS011;72427;42.000;21.464;2023-12-04T02:32:22;13.65;;;6.35;;
82703;SDS011;72427;42.000;21.464;2023-12-04T02:34:48;11.35;;;4.95;;
82703;SDS011;72427;42.000;21.464;2023-12-04T02:37:15;12.05;;;6.13;;
82703;SDS011;72427;42.000;21.464;2023-12-04T02:39:42;12.23;;;5.97;;
82703;SDS011;72427;42.000;21.464;2023-12-04T02:42:08;13.50;;;5.70;;
82703;SDS011;72427;42.000;21.464;2023-12-04T02:44:34;13.55;;;6.07;;
82703;SDS011;72427;42.000;21.464;2023-12-04T02:47:00;11.68;;;5.65;;
82703;SDS011;72427;42.000;21.464;2023-12-04T02:49:26;11.82;;;5.28;;
82703;SDS011;72427;42.000;21.464;2023-12-04T02:51:52;12.23;;;5.63;;
82703;SDS011;72427;42.000;21.464;2023-12-04T02:54:18;12.85;;;5.80;;
82703;SDS011;72427;42.000;21.464;2023-12-04T02:56:44;13.75;;;6.30;;
82703;SDS011;72427;42.000;21.464;2023-12-04T02:59:10;11.25;;;5.80;;
82703;SDS011;72427;42.000;21.464;2023-12-04T03:01:36;10.55;;;5.30;;
82703;SDS011;72427;42.000;21.464;2023-12-04T03:04:02;11.23;;;5.50;;
82703;SDS011;72427;42.000;21.464;2023-12-04T03:06:28;10.05;;;4.82;;
82703;SDS011;72427;42.000;21.464;2023-12-04T03:08:54;11.93;;;5.70;;
82703;SDS011;72427;42.000;21.464;2023-12-04T03:11:20;11.07;;;6.07;;
82703;SDS011;72427;42.000;21.464;2023-12-04T03:13:46;12.63;;;6.68;;
82703;SDS011;72427;42.000;21.464;2023-12-04T03:16:16;13.10;;;5.65;;
82703;SDS011;72427;42.000;21.464;2023-12-04T03:18:42;10.82;;;5.20;;
82703;SDS011;72427;42.000;21.464;2023-12-04T03:21:08;12.95;;;5.57;;
82703;SDS011;72427;42.000;21.464;2023-12-04T03:23:34;11.35;;;5.82;;
82703;SDS011;72427;42.000;21.464;2023-12-04T03:26:00;11.52;;;5.93;;
82703;SDS011;72427;42.000;21.464;2023-12-04T03:28:27;11.00;;;5.30;;
82703;SDS011;72427;42.000;21.464;2023-12-04T03:30:53;16.05;;;6.13;;
82703;SDS011;72427;42.000;21.464;2023-12-04T03:33:19;12.18;;;6.45;;
82703;SDS011;72427;42.000;21.464;2023-12-04T03:35:45;12.20;;;5.97;;
82703;SDS011;72427;42.000;21.464;2023-12-04T03:38:11;12.85;;;6.30;;
82703;SDS011;72427;42.000;21.464;2023-12-04T03:40:37;14.50;;;6.68;;
82703;SDS011;72427;42.000;21.464;2023-12-04T03:43:03;11.80;;;5.78;;
82703;SDS011;72427;42.000;21.464;2023-12-04T03:45:29;18.55;;;7.10;;
82703;SDS011;72427;42.000;21.464;2023-12-04T03:47:55;19.65;;;9.75;;
82703;SDS011;72427;42.000;21.464;2023-12-04T03:50:21;17.48;;;6.97;;
82703;SDS011;72427;42.000;21.464;2023-12-04T03:52:47;13.20;;;6.32;;
82703;SDS011;72427;42.000;21.464;2023-12-04T03:55:14;12.77;;;6.22;;
82703;SDS011;72427;42.000;21.464;2023-12-04T03:57:40;15.73;;;8.65;;
82703;SDS011;72427;42.000;21.464;2023-12-04T04:00:06;12.25;;;6.57;;
82703;SDS011;72427;42.000;21.464;2023-12-04T04:02:32;12.30;;;6.00;;
82703;SDS011;72427;42.000;21.464;2023-12-04T04:04:58;13.30;;;6.50;;
82703;SDS011;72427;42.000;21.464;2023-12-04T04:07:24;11.13;;;5.40;;
82703;SDS011;72427;42.000;21.464;2023-12-04T04:09:51;12.25;;;6.00;;
82703;SDS011;72427;42.000;21.464;2023-12-04T04:12:17;12.40;;;6.28;;
82703;SDS011;72427;42.000;21.464;2023-12-04T04:14:43;11.13;;;5.90;;
82703;SDS011;72427;42.000;21.464;2023-12-04T04:17:09;12.65;;;6.80;;
82703;SDS011;72427;42.000;21.464;2023-12-04T04:19:35;14.43;;;7.03;;
82703;SDS011;72427;42.000;21.464;2023-12-04T04:22:01;15.15;;;7.10;;
82703;SDS011;72427;42.000;21.464;2023-12-04T04:24:28;12.50;;;6.82;;
82703;SDS011;72427;42.000;21.464;2023-12-04T04:26:54;13.32;;;7.05;;
82703;SDS011;72427;42.000;21.464;2023-12-04T04:29:20;15.35;;;8.07;;
82703;SDS011;72427;42.000;21.464;2023-12-04T04:31:46;18.98;;;7.25;;
82703;SDS011;72427;42.000;21.464;2023-12-04T04:34:12;15.25;;;6.75;;
82703;SDS011;72427;42.000;21.464;2023-12-04T04:36:38;13.68;;;7.28;;
82703;SDS011;72427;42.000;21.464;2023-12-04T04:39:04;14.68;;;6.45;;
82703;SDS011;72427;42.000;21.464;2023-12-04T04:41:33;14.38;;;7.18;;
82703;SDS011;72427;42.000;21.464;2023-12-04T04:43:59;12.05;;;6.55;;
82703;SDS011;72427;42.000;21.464;2023-12-04T04:46:25;14.13;;;6.93;;
82703;SDS011;72427;42.000;21.464;2023-12-04T04:48:52;20.25;;;7.13;;
82703;SDS011;72427;42.000;21.464;2023-12-04T04:51:18;15.05;;;6.93;;
82703;SDS011;72427;42.000;21.464;2023-12-04T04:53:44;13.77;;;6.95;;
82703;SDS011;72427;42.000;21.464;2023-12-04T04:56:10;16.20;;;7.15;;
82703;SDS011;72427;42.000;21.464;2023-12-04T04:58:37;16.98;;;7.45;;
82703;SDS011;72427;42.000;21.464;2023-12-04T05:01:04;16.45;;;7.25;;
82703;SDS011;72427;42.000;21.464;2023-12-04T05:03:30;12.98;;;6.60;;
82703;SDS011;72427;42.000;21.464;2023-12-04T05:05:56;14.88;;;6.43;;
82703;SDS011;72427;42.000;21.464;2023-12-04T05:08:22;15.43;;;6.82;;
82703;SDS011;72427;42.000;21.464;2023-12-04T05:10:48;26.00;;;12.63;;
82703;SDS011;72427;42.000;21.464;2023-12-04T05:13:14;18.73;;;8.45;;
82703;SDS011;72427;42.000;21.464;2023-12-04T05:15:40;18.98;;;9.15;;
82703;SDS011;72427;42.000;21.464;2023-12-04T05:18:06;17.23;;;7.35;;
82703;SDS011;72427;42.000;21.464;2023-12-04T05:20:32;11.75;;;7.13;;
82703;SDS011;72427;42.000;21.464;2023-12-04T05:22:58;17.63;;;6.95;;
82703;SDS011;72427;42.000;21.464;2023-12-04T05:25:24;15.32;;;7.28;;
82703;SDS011;72427;42.000;21.464;2023-12-04T05:27:50;13.00;;;5.90;;
82703;SDS011;72427;42.000;21.464;2023-12-04T05:30:16;15.23;;;7.07;;
82703;SDS011;72427;42.000;21.464;2023-12-04T05:32:42;14.15;;;7.47;;
82703;SDS011;72427;42.000;21.464;2023-12-04T05:35:08;14.75;;;7.60;;
82703;SDS011;72427;42.000;21.464;2023-12-04T05:37:34;16.90;;;7.22;;
82703;SDS011;72427;42.000;21.464;2023-12-04T05:40:00;14.90;;;7.05;;
82703;SDS011;72427;42.000;21.464;2023-12-04T05:42:28;12.88;;;6.78;;
82703;SDS011;72427;42.000;21.464;2023-12-04T05:44:54;16.63;;;9.18;;
82703;SDS011;72427;42.000;21.464;2023-12-04T05:47:22;13.90;;;7.28;;
82703;SDS011;72427;42.000;21.464;2023-12-04T05:49:48;14.38;;;7.18;;
82703;SDS011;72427;42.000;21.464;2023-12-04T05:52:14;17.10;;;7.53;;
82703;SDS011;72427;42.000;21.464;2023-12-04T05:54:40;44.40;;;20.33;;
82703;SDS011;72427;42.000;21.464;2023-12-04T05:57:06;56.70;;;27.58;;
82703;SDS011;72427;42.000;21.464;2023-12-04T05:59:32;27.75;;;12.88;;
82703;SDS011;72427;42.000;21.464;2023-12-04T06:01:58;17.85;;;8.10;;
82703;SDS011;72427;42.000;21.464;2023-12-04T06:04:24;16.60;;;7.53;;
82703;SDS011;72427;42.000;21.464;2023-12-04T06:06:51;14.88;;;7.72;;
82703;SDS011;72427;42.000;21.464;2023-12-04T06:09:17;19.27;;;9.10;;
82703;SDS011;72427;42.000;21.464;2023-12-04T06:11:43;15.02;;;7.68;;
82703;SDS011;72427;42.000;21.464;2023-12-04T06:14:09;15.30;;;7.65;;
82703;SDS011;72427;42.000;21.464;2023-12-04T06:16:36;17.15;;;7.93;;
82703;SDS011;72427;42.000;21.464;2023-12-04T06:19:02;15.90;;;7.93;;
82703;SDS011;72427;42.000;21.464;2023-12-04T06:21:31;16.42;;;8.57;;
82703;SDS011;72427;42.000;21.464;2023-12-04T06:23:58;15.32;;;7.60;;
82703;SDS011;72427;42.000;21.464;2023-12-04T06:26:24;16.45;;;7.57;;
82703;SDS011;72427;42.000;21.464;2023-12-04T06:28:50;16.90;;;8.30;;
82703;SDS011;72427;42.000;21.464;2023-12-04T06:31:17;19.60;;;8.07;;
82703;SDS011;72427;42.000;21.464;2023-12-04T06:33:43;16.20;;;7.72;;
82703;SDS011;72427;42.000;21.464;2023-12-04T06:36:09;16.85;;;7.95;;
82703;SDS011;72427;42.000;21.464;2023-12-04T06:38:39;35.55;;;14.82;;
82703;SDS011;72427;42.000;21.464;2023-12-04T06:41:06;33.03;;;14.07;;
82703;SDS011;72427;42.000;21.464;2023-12-04T06:43:32;38.67;;;15.88;;
82703;SDS011;72427;42.000;21.464;2023-12-04T06:45:58;19.13;;;8.73;;
82703;SDS011;72427;42.000;21.464;2023-12-04T06:48:25;24.25;;;10.55;;
82703;SDS011;72427;42.000;21.464;2023-12-04T06:50:51;17.92;;;9.75;;
82703;SDS011;72427;42.000;21.464;2023-12-04T06:53:17;18.92;;;8.52;;
82703;SDS011;72427;42.000;21.464;2023-12-04T06:55:43;20.65;;;10.52;;
82703;SDS011;72427;42.000;21.464;2023-12-04T06:58:09;21.30;;;9.90;;
82703;SDS011;72427;42.000;21.464;2023-12-04T07:00:35;19.70;;;10.07;;
82703;SDS011;72427;42.000;21.464;2023-12-04T07:03:01;28.33;;;11.48;;
82703;SDS011;72427;42.000;21.464;2023-12-04T07:05:28;22.27;;;10.60;;
82703;SDS011;72427;42.000;21.464;2023-12-04T07:07:54;19.45;;;9.50;;
82703;SDS011;72427;42.000;21.464;2023-12-04T07:10:20;21.55;;;9.57;;
82703;SDS011;72427;42.000;21.464;2023-12-04T07:12:46;21.65;;;10.43;;
82703;SDS011;72427;42.000;21.464;2023-12-04T07:15:12;22.60;;;11.10;;
82703;SDS011;72427;42.000;21.464;2023-12-04T07:17:38;24.45;;;11.50;;
82703;SDS011;72427;42.000;21.464;2023-12-04T07:20:05;19.15;;;10.65;;
82703;SDS011;72427;42.000;21.464;2023-12-04T07:22:31;19.80;;;11.43;;
82703;SDS011;72427;42.000;21.464;2023-12-04T07:24:57;20.98;;;11.25;;
82703;SDS011;72427;42.000;21.464;2023-12-04T07:27:23;25.70;;;11.88;;
82703;SDS011;72427;42.000;21.464;2023-12-04T07:29:50;34.05;;;15.55;;
82703;SDS011;72427;42.000;21.464;2023-12-04T07:32:16;21.75;;;10.75;;
82703;SDS011;72427;42.000;21.464;2023-12-04T07:34:43;20.23;;;10.45;;
82703;SDS011;72427;42.000;21.464;2023-12-04T07:37:09;18.33;;;10.55;;
82703;SDS011;72427;42.000;21.464;2023-12-04T07:39:35;18.98;;;9.25;;
82703;SDS011;72427;42.000;21.464;2023-12-04T07:42:01;18.30;;;9.52;;
82703;SDS011;72427;42.000;21.464;2023-12-04T07:44:27;20.90;;;9.40;;
82703;SDS011;72427;42.000;21.464;2023-12-04T07:46:53;22.13;;;10.02;;
82703;SDS011;72427;42.000;21.464;2023-12-04T07:49:19;19.15;;;9.13;;
82703;SDS011;72427;42.000;21.464;2023-12-04T07:51:45;18.08;;;9.48;;
82703;SDS011;72427;42.000;21.464;2023-12-04T07:54:11;22.83;;;11.20;;
82703;SDS011;72427;42.000;21.464;2023-12-04T07:56:37;19.23;;;9.77;;
82703;SDS011;72427;42.000;21.464;2023-12-04T07:59:03;21.90;;;9.25;;
82703;SDS011;72427;42.000;21.464;2023-12-04T08:01:29;21.13;;;10.57;;
82703;SDS011;72427;42.000;21.464;2023-12-04T08:03:55;18.02;;;10.10;;
82703;SDS011;72427;42.000;21.464;2023-12-04T08:06:21;19.08;;;9.55;;
82703;SDS011;72427;42.000;21.464;2023-12-04T08:08:48;18.27;;;10.05;;
82703;SDS011;72427;42.000;21.464;2023-12-04T08:11:14;23.90;;;12.73;;
82703;SDS011;72427;42.000;21.464;2023-12-04T08:13:40;24.23;;;11.55;;
82703;SDS011;72427;42.000;21.464;2023-12-04T08:16:12;22.27;;;11.85;;
82703;SDS011;72427;42.000;21.464;2023-12-04T08:18:40;36.00;;;12.07;;
82703;SDS011;72427;42.000;21.464;2023-12-04T08:21:06;28.27;;;13.57;;
82703;SDS011;72427;42.000;21.464;2023-12-04T08:23:32;29.42;;;14.50;;
82703;SDS011;72427;42.000;21.464;2023-12-04T08:25:58;27.60;;;12.77;;
82703;SDS011;72427;42.000;21.464;2023-12-04T08:28:24;21.20;;;11.45;;
82703;SDS011;72427;42.000;21.464;2023-12-04T08:30:50;23.02;;;11.35;;
82703;SDS011;72427;42.000;21.464;2023-12-04T08:33:17;22.20;;;11.27;;
82703;SDS011;72427;42.000;21.464;2023-12-04T08:35:45;22.58;;;11.02;;
82703;SDS011;72427;42.000;21.464;2023-12-04T08:38:11;18.27;;;9.57;;
82703;SDS011;72427;42.000;21.464;2023-12-04T08:40:37;18.48;;;9.75;;
82703;SDS011;72427;42.000;21.464;2023-12-04T08:43:03;21.08;;;11.00;;
82703;SDS011;72427;42.000;21.464;2023-12-04T08:45:29;20.45;;;10.68;;
82703;SDS011;72427;42.000;21.464;2023-12-04T08:47:55;19.95;;;10.57;;
82703;SDS011;72427;42.000;21.464;2023-12-04T08:50:21;23.02;;;11.50;;
82703;SDS011;72427;42.000;21.464;2023-12-04T08:52:47;23.38;;;10.52;;
82703;SDS011;72427;42.000;21.464;2023-12-04T08:55:13;24.50;;;11.40;;
82703;SDS011;72427;42.000;21.464;2023-12-04T08:57:39;19.55;;;9.73;;
82703;SDS011;72427;42.000;21.464;2023-12-04T09:00:05;20.48;;;10.32;;
82703;SDS011;72427;42.000;21.464;2023-12-04T09:02:33;25.92;;;11.85;;
82703;SDS011;72427;42.000;21.464;2023-12-04T09:04:59;19.05;;;10.00;;
82703;SDS011;72427;42.000;21.464;2023-12-04T09:07:25;18.67;;;9.93;;
82703;SDS011;72427;42.000;21.464;2023-12-04T09:09:51;26.55;;;12.23;;
82703;SDS011;72427;42.000;21.464;2023-12-04T09:12:17;22.45;;;10.85;;
82703;SDS011;72427;42.000;21.464;2023-12-04T09:14:43;23.90;;;11.90;;
82703;SDS011;72427;42.000;21.464;2023-12-04T09:17:10;25.95;;;12.77;;
82703;SDS011;72427;42.000;21.464;2023-12-04T09:19:36;19.08;;;9.63;;
82703;SDS011;72427;42.000;21.464;2023-12-04T09:22:02;18.25;;;8.95;;
82703;SDS011;72427;42.000;21.464;2023-12-04T09:24:28;18.88;;;9.90;;
82703;SDS011;72427;42.000;21.464;2023-12-04T09:26:56;21.50;;;10.38;;
82703;SDS011;72427;42.000;21.464;2023-12-04T09:29:22;25.40;;;11.88;;
82703;SDS011;72427;42.000;21.464;2023-12-04T09:31:50;21.80;;;10.23;;
82703;SDS011;72427;42.000;21.464;2023-12-04T09:34:16;24.35;;;11.55;;
82703;SDS011;72427;42.000;21.464;2023-12-04T09:36:43;18.92;;;10.30;;
82703;SDS011;72427;42.000;21.464;2023-12-04T09:39:09;22.15;;;10.65;;
82703;SDS011;72427;42.000;21.464;2023-12-04T09:41:35;19.30;;;9.63;;
82703;SDS011;72427;42.000;21.464;2023-12-04T09:44:02;21.02;;;10.88;;
82703;SDS011;72427;42.000;21.464;2023-12-04T09:46:28;22.50;;;9.57;;
82703;SDS011;72427;42.000;21.464;2023-12-04T09:48:55;19.55;;;9.70;;
82703;SDS011;72427;42.000;21.464;2023-12-04T09:51:22;21.08;;;11.18;;
82703;SDS011;72427;42.000;21.464;2023-12-04T09:53:48;16.60;;;9.75;;
82703;SDS011;72427;42.000;21.464;2023-12-04T09:56:15;21.02;;;10.25;;
82703;SDS011;72427;42.000;21.464;2023-12-04T09:58:43;20.77;;;9.55;;
82703;SDS011;72427;42.000;21.464;2023-12-04T10:01:10;21.30;;;10.30;;
82703;SDS011;72427;42.000;21.464;2023-12-04T10:03:37;19.05;;;9.82;;
82703;SDS011;72427;42.000;21.464;2023-12-04T10:06:04;18.17;;;9.65;;
82703;SDS011;72427;42.000;21.464;2023-12-04T10:08:30;20.90;;;10.20;;
82703;SDS011;72427;42.000;21.464;2023-12-04T10:10:56;21.55;;;11.75;;
82703;SDS011;72427;42.000;21.464;2023-12-04T10:13:24;22.83;;;11.45;;
82703;SDS011;72427;42.000;21.464;2023-12-04T10:15:50;22.45;;;10.30;;
82703;SDS011;72427;42.000;21.464;2023-12-04T10:18:29;21.05;;;11.43;;
82703;SDS011;72427;42.000;21.464;2023-12-04T10:20:56;16.88;;;9.32;;
82703;SDS011;72427;42.000;21.464;2023-12-04T10:23:23;16.95;;;8.27;;
82703;SDS011;72427;42.000;21.464;2023-12-04T10:26:01;22.63;;;10.32;;
82703;SDS011;72427;42.000;21.464;2023-12-04T10:28:27;20.08;;;10.75;;
82703;SDS011;72427;42.000;21.464;2023-12-04T10:30:55;19.40;;;8.73;;
82703;SDS011;72427;42.000;21.464;2023-12-04T10:33:21;20.95;;;11.65;;
82703;SDS011;72427;42.000;21.464;2023-12-04T10:35:52;21.25;;;11.32;;
82703;SDS011;72427;42.000;21.464;2023-12-04T10:38:18;24.00;;;12.00;;
82703;SDS011;72427;42.000;21.464;2023-12-04T10:40:44;21.23;;;10.85;;
82703;SDS011;72427;42.000;21.464;2023-12-04T10:45:39;22.23;;;12.63;;
82703;SDS011;72427;42.000;21.464;2023-12-04T10:48:06;26.60;;;13.82;;
82703;SDS011;72427;42.000;21.464;2023-12-04T10:50:36;25.05;;;12.43;;
82703;SDS011;72427;42.000;21.464;2023-12-04T10:53:05;26.38;;;14.13;;
82703;SDS011;72427;42.000;21.464;2023-12-04T10:55:32;28.75;;;12.02;;
82703;SDS011;72427;42.000;21.464;2023-12-04T10:58:02;23.88;;;11.77;;
82703;SDS011;72427;42.000;21.464;2023-12-04T11:00:39;27.58;;;15.13;;
82703;SDS011;72427;42.000;21.464;2023-12-04T11:03:08;23.63;;;13.45;;
82703;SDS011;72427;42.000;21.464;2023-12-04T11:05:38;23.70;;;10.63;;
82703;SDS011;72427;42.000;21.464;2023-12-04T11:08:06;20.35;;;10.60;;
82703;SDS011;72427;42.000;21.464;2023-12-04T11:10:32;20.23;;;10.45;;
82703;SDS011;72427;42.000;21.464;2023-12-04T11:13:06;18.00;;;10.43;;
82703;SDS011;72427;42.000;21.464;2023-12-04T11:15:33;17.50;;;8.43;;
82703;SDS011;72427;42.000;21.464;2023-12-04T11:18:01;22.33;;;11.18;;
82703;SDS011;72427;42.000;21.464;2023-12-04T11:20:28;22.40;;;8.63;;
82703;SDS011;72427;42.000;21.464;2023-12-04T11:22:56;18.23;;;7.68;;
82703;SDS011;72427;42.000;21.464;2023-12-04T11:25:22;14.23;;;6.22;;
82703;SDS011;72427;42.000;21.464;2023-12-04T11:27:50;11.73;;;5.97;;
82703;SDS011;72427;42.000;21.464;2023-12-04T11:30:16;13.95;;;7.53;;
82703;SDS011;72427;42.000;21.464;2023-12-04T11:32:46;15.50;;;8.07;;
82703;SDS011;72427;42.000;21.464;2023-12-04T11:35:17;20.00;;;9.82;;
82703;SDS011;72427;42.000;21.464;2023-12-04T11:37:46;18.15;;;9.98;;
82703;SDS011;72427;42.000;21.464;2023-12-04T11:42:38;14.43;;;7.47;;
82703;SDS011;72427;42.000;21.464;2023-12-04T11:45:05;15.35;;;8.98;;
82703;SDS011;72427;42.000;21.464;2023-12-04T11:47:48;22.90;;;9.57;;
82703;SDS011;72427;42.000;21.464;2023-12-04T11:50:14;16.23;;;9.65;;
82703;SDS011;72427;42.000;21.464;2023-12-04T11:52:40;22.27;;;10.93;;
82703;SDS011;72427;42.000;21.464;2023-12-04T11:55:07;17.35;;;9.98;;
82703;SDS011;72427;42.000;21.464;2023-12-04T11:57:37;16.63;;;10.35;;
82703;SDS011;72427;42.000;21.464;2023-12-04T12:02:38;18.40;;;10.95;;
82703;SDS011;72427;42.000;21.464;2023-12-04T12:05:05;20.92;;;10.85;;
82703;SDS011;72427;42.000;21.464;2023-12-04T12:07:31;19.50;;;11.48;;
82703;SDS011;72427;42.000;21.464;2023-12-04T12:09:57;21.60;;;13.30;;
82703;SDS011;72427;42.000;21.464;2023-12-04T12:12:24;17.17;;;10.85;;
82703;SDS011;72427;42.000;21.464;2023-12-04T12:14:50;16.50;;;10.55;;
82703;SDS011;72427;42.000;21.464;2023-12-04T12:17:16;14.95;;;7.90;;
82703;SDS011;72427;42.000;21.464;2023-12-04T12:19:43;17.30;;;9.63;;
82703;SDS011;72427;42.000;21.464;2023-12-04T12:22:09;15.50;;;9.52;;
82703;SDS011;72427;42.000;21.464;2023-12-04T12:24:35;14.48;;;9.45;;
82703;SDS011;72427;42.000;21.464;2023-12-04T12:27:01;16.63;;;8.98;;
82703;SDS011;72427;42.000;21.464;2023-12-04T12:29:27;11.90;;;8.15;;
82703;SDS011;72427;42.000;21.464;2023-12-04T12:31:53;11.88;;;7.90;;
82703;SDS011;72427;42.000;21.464;2023-12-04T12:34:19;14.68;;;8.88;;
82703;SDS011;72427;42.000;21.464;2023-12-04T12:36:46;13.15;;;8.27;;
82703;SDS011;72427;42.000;21.464;2023-12-04T12:39:12;14.30;;;8.07;;
82703;SDS011;72427;42.000;21.464;2023-12-04T12:41:45;13.63;;;8.07;;
82703;SDS011;72427;42.000;21.464;2023-12-04T12:44:12;14.30;;;9.13;;
82703;SDS011;72427;42.000;21.464;2023-12-04T12:46:40;15.23;;;9.02;;
82703;SDS011;72427;42.000;21.464;2023-12-04T12:49:06;12.45;;;8.00;;
82703;SDS011;72427;42.000;21.464;2023-12-04T12:51:32;13.95;;;8.05;;
82703;SDS011;72427;42.000;21.464;2023-12-04T12:53:58;15.15;;;9.30;;
82703;SDS011;72427;42.000;21.464;2023-12-04T12:56:27;14.82;;;9.48;;
82703;SDS011;72427;42.000;21.464;2023-12-04T12:58:53;15.52;;;9.40;;
82703;SDS011;72427;42.000;21.464;2023-12-04T13:01:22;14.82;;;9.10;;
82703;SDS011;72427;42.000;21.464;2023-12-04T13:03:50;16.35;;;8.88;;
82703;SDS011;72427;42.000;21.464;2023-12-04T13:06:16;14.38;;;8.82;;
82703;SDS011;72427;42.000;21.464;2023-12-04T13:08:42;15.73;;;9.30;;
82703;SDS011;72427;42.000;21.464;2023-12-04T13:11:09;13.73;;;9.00;;
82703;SDS011;72427;42.000;21.464;2023-12-04T13:13:35;13.60;;;9.30;;
82703;SDS011;72427;42.000;21.464;2023-12-04T13:16:01;15.65;;;9.57;;
82703;SDS011;72427;42.000;21.464;2023-12-04T13:18:27;12.95;;;8.35;;
82703;SDS011;72427;42.000;21.464;2023-12-04T13:20:56;15.63;;;9.48;;
82703;SDS011;72427;42.000;21.464;2023-12-04T13:23:22;16.90;;;10.15;;
82703;SDS011;72427;42.000;21.464;2023-12-04T13:25:49;14.30;;;9.55;;
82703;SDS011;72427;42.000;21.464;2023-12-04T13:28:15;13.57;;;8.85;;
82703;SDS011;72427;42.000;21.464;2023-12-04T13:30:41;13.55;;;8.02;;
82703;SDS011;72427;42.000;21.464;2023-12-04T13:33:07;13.95;;;8.35;;
82703;SDS011;72427;42.000;21.464;2023-12-04T13:35:34;14.77;;;8.75;;
82703;SDS011;72427;42.000;21.464;2023-12-04T13:38:00;14.60;;;8.75;;
82703;SDS011;72427;42.000;21.464;2023-12-04T13:40:26;13.95;;;9.05;;
82703;SDS011;72427;42.000;21.464;2023-12-04T13:42:57;16.70;;;8.93;;
82703;SDS011;72427;42.000;21.464;2023-12-04T13:45:41;15.93;;;9.13;;
82703;SDS011;72427;42.000;21.464;2023-12-04T13:48:07;14.32;;;8.70;;
82703;SDS011;72427;42.000;21.464;2023-12-04T13:50:33;13.93;;;8.10;;
82703;SDS011;72427;42.000;21.464;2023-12-04T13:52:59;15.20;;;7.38;;
82703;SDS011;72427;42.000;21.464;2023-12-04T13:55:26;12.77;;;7.63;;
82703;SDS011;72427;42.000;21.464;2023-12-04T13:58:10;15.30;;;8.35;;
82703;SDS011;72427;42.000;21.464;2023-12-04T14:00:56;15.07;;;8.30;;
82703;SDS011;72427;42.000;21.464;2023-12-04T14:03:23;12.07;;;6.43;;
82703;SDS011;72427;42.000;21.464;2023-12-04T14:05:49;12.95;;;6.75;;
82703;SDS011;72427;42.000;21.464;2023-12-04T14:08:15;12.35;;;6.70;;
82703;SDS011;72427;42.000;21.464;2023-12-04T14:10:41;13.52;;;6.63;;
82703;SDS011;72427;42.000;21.464;2023-12-04T14:13:07;12.80;;;6.35;;
82703;SDS011;72427;42.000;21.464;2023-12-04T14:15:33;38.80;;;7.93;;
82703;SDS011;72427;42.000;21.464;2023-12-04T14:17:59;13.45;;;7.60;;
82703;SDS011;72427;42.000;21.464;2023-12-04T14:20:25;14.07;;;6.63;;
82703;SDS011;72427;42.000;21.464;2023-12-04T14:22:51;13.63;;;6.53;;